Time;durP1;ratioP1;P1;durP2;ratioP2;P2;SDS_P1;SDS_P2;PMS_P1;PMS_P2;Temp;Humidity;BMP_temperature;BMP_pressure;BME280_temperature;BME280_humidity;BME280_pressure;Samples;Min_cycle;Max_cycle;Signal;HPM_P1;HPM_P2
2022/05/03 00:02:24;;;;;;;3.50;1.98;;;9.00;99.90;;;;;;5048108;28;20018;-63
2022/05/03 00:05:04;;;;;;;3.38;2.00;;;8.90;99.90;;;;;;5049967;28;20021;-62
2022/05/03 00:07:41;;;;;;;3.33;1.98;;;8.80;99.90;;;;;;5050049;28;20514;-62
2022/05/03 00:10:09;;;;;;;2.33;2.10;;;8.80;99.90;;;;;;5049225;28;20032;-63
2022/05/03 00:12:46;;;;;;;3.25;2.30;;;8.70;99.90;;;;;;5043820;28;20016;-63
2022/05/03 00:15:12;;;;;;;3.28;1.92;;;8.70;99.90;;;;;;5047677;28;20019;-62
2022/05/03 00:17:40;;;;;;;4.45;2.30;;;8.70;99.90;;;;;;5049642;28;20630;-62
2022/05/03 00:20:06;;;;;;;3.40;2.35;;;8.70;99.90;;;;;;5048268;28;20528;-63
2022/05/03 00:22:33;;;;;;;3.92;2.60;;;8.60;99.90;;;;;;5052073;28;20428;-63
2022/05/03 00:24:59;;;;;;;3.72;2.63;;;8.60;99.90;;;;;;5051031;28;20506;-64
2022/05/03 00:27:26;;;;;;;3.10;2.17;;;8.50;99.90;;;;;;5037396;28;20044;-64
2022/05/03 00:29:57;;;;;;;6.70;2.53;;;8.50;99.90;;;;;;5050993;28;20388;-64
2022/05/03 00:32:26;;;;;;;4.70;2.40;;;8.40;99.90;;;;;;5052406;28;20047;-63
2022/05/03 00:34:52;;;;;;;4.50;2.55;;;8.40;99.90;;;;;;5035841;28;20347;-63
2022/05/03 00:37:18;;;;;;;4.70;2.60;;;8.40;99.90;;;;;;5051975;28;20100;-63
2022/05/03 00:39:44;;;;;;;5.50;2.78;;;8.50;99.90;;;;;;5052935;28;20394;-63
2022/05/03 00:42:20;;;;;;;3.17;2.47;;;8.40;99.90;;;;;;5053100;28;20020;-63
2022/05/03 00:44:55;;;;;;;5.25;2.80;;;8.40;99.90;;;;;;5051543;28;20033;-63
2022/05/03 00:47:39;;;;;;;3.20;2.63;;;8.40;99.90;;;;;;5039253;28;20032;-63
2022/05/03 00:50:09;;;;;;;3.97;2.55;;;8.30;99.90;;;;;;5052351;28;20032;-63
2022/05/03 00:52:49;;;;;;;4.57;2.88;;;8.30;99.90;;;;;;5052918;28;20017;-62
2022/05/03 00:55:26;;;;;;;2.05;1.95;;;8.40;99.90;;;;;;5051334;28;20051;-64
2022/05/03 00:58:24;;;;;;;4.00;2.85;;;8.40;99.90;;;;;;5052448;28;20038;-62
2022/05/03 01:01:03;;;;;;;3.10;2.47;;;8.30;99.90;;;;;;5052135;28;20049;-62
2022/05/03 01:04:08;;;;;;;3.33;2.50;;;8.30;99.90;;;;;;5048786;28;20501;-62
2022/05/03 01:06:45;;;;;;;4.43;2.38;;;8.30;99.90;;;;;;5051484;28;20540;-62
2022/05/03 01:09:10;;;;;;;5.00;2.70;;;8.30;99.90;;;;;;5040872;28;20540;-62
2022/05/03 01:11:57;;;;;;;3.13;2.80;;;8.30;99.90;;;;;;5050906;28;20017;-62
2022/05/03 01:15:30;;;;;;;4.90;2.83;;;8.30;99.90;;;;;;5051288;28;20028;-63
2022/05/03 01:18:26;;;;;;;2.53;2.33;;;8.30;99.90;;;;;;4965501;28;20035;-62
2022/05/03 01:21:14;;;;;;;4.60;2.97;;;8.30;99.90;;;;;;4979863;28;20162;-63
2022/05/03 01:23:57;;;;;;;3.25;2.65;;;8.30;99.90;;;;;;5052120;28;20032;-63
2022/05/03 01:26:47;;;;;;;3.63;2.70;;;8.30;99.90;;;;;;5052059;28;20082;-63
2022/05/03 01:29:44;;;;;;;6.50;3.63;;;8.30;99.90;;;;;;5050643;28;20036;-62
2022/05/03 01:32:11;;;;;;;5.20;3.30;;;8.30;99.90;;;;;;5052390;28;20095;-63
2022/05/03 01:34:37;;;;;;;3.35;2.83;;;8.20;99.90;;;;;;5052997;28;20017;-63
2022/05/03 01:37:30;;;;;;;6.03;2.90;;;8.20;99.90;;;;;;5052505;28;20025;-62
2022/05/03 01:40:23;;;;;;;5.32;3.13;;;8.30;99.90;;;;;;5055112;28;20025;-63
2022/05/03 01:43:10;;;;;;;5.40;3.25;;;8.20;99.90;;;;;;5055885;28;20029;-62
2022/05/03 01:45:43;;;;;;;6.53;3.47;;;8.20;99.90;;;;;;5056529;28;20032;-62
2022/05/03 01:48:08;;;;;;;4.53;3.55;;;8.20;99.90;;;;;;5057307;28;20032;-64
2022/05/03 01:50:53;;;;;;;5.03;3.30;;;8.20;99.90;;;;;;5057538;28;20386;-63
2022/05/03 01:53:29;;;;;;;4.80;3.22;;;8.10;99.90;;;;;;5055939;28;20385;-62
2022/05/03 01:55:58;;;;;;;5.90;3.72;;;8.10;99.90;;;;;;5057073;28;20017;-62
2022/05/03 01:58:32;;;;;;;6.85;4.68;;;8.10;99.90;;;;;;5057349;28;20113;-64
2022/05/03 02:01:22;;;;;;;6.22;3.40;;;8.00;99.90;;;;;;5055443;28;20449;-63
2022/05/03 02:03:50;;;;;;;4.03;3.05;;;8.00;99.90;;;;;;5052041;28;20108;-61
2022/05/03 02:06:43;;;;;;;6.05;3.15;;;8.00;99.90;;;;;;5038695;28;20039;-62
2022/05/03 02:09:09;;;;;;;7.30;4.07;;;8.10;99.90;;;;;;5042392;28;20076;-63
2022/05/03 02:11:45;;;;;;;5.60;3.88;;;8.00;99.90;;;;;;5037052;28;20034;-63
2022/05/03 02:14:46;;;;;;;5.15;3.33;;;8.10;99.90;;;;;;5036747;28;20075;-63
2022/05/03 02:17:24;;;;;;;4.45;3.40;;;8.00;99.90;;;;;;5042086;28;20028;-63
2022/05/03 02:20:11;;;;;;;5.72;3.83;;;7.90;99.90;;;;;;5056564;28;20063;-63
2022/05/03 02:23:10;;;;;;;6.47;3.47;;;7.90;99.90;;;;;;5057131;28;20490;-63
2022/05/03 02:25:48;;;;;;;6.18;3.22;;;7.90;99.90;;;;;;5057637;28;20029;-63
2022/05/03 02:28:38;;;;;;;6.60;3.60;;;7.80;99.90;;;;;;5056463;28;20390;-63
2022/05/03 02:31:07;;;;;;;5.43;3.75;;;7.80;99.90;;;;;;5056664;28;20058;-63
2022/05/03 02:33:37;;;;;;;6.95;4.32;;;7.80;99.90;;;;;;5038350;28;20033;-63
2022/05/03 02:36:10;;;;;;;7.63;4.13;;;7.80;99.90;;;;;;5056774;28;20363;-62
2022/05/03 02:39:05;;;;;;;9.18;4.28;;;7.80;99.90;;;;;;5056318;28;20043;-63
2022/05/03 02:41:34;;;;;;;9.45;4.43;;;7.80;99.90;;;;;;5048030;28;20106;-63
2022/05/03 02:44:02;;;;;;;9.38;5.45;;;7.80;99.90;;;;;;5056605;28;20346;-63
2022/05/03 02:46:56;;;;;;;9.98;4.88;;;7.80;99.90;;;;;;5056632;28;20104;-63
2022/05/03 02:49:44;;;;;;;9.95;5.85;;;7.70;99.90;;;;;;5056367;28;20406;-63
2022/05/03 02:52:16;;;;;;;7.22;5.53;;;7.70;99.90;;;;;;5055895;28;20029;-63
2022/05/03 02:54:47;;;;;;;9.82;6.25;;;7.70;99.90;;;;;;5056324;28;20017;-63
2022/05/03 02:57:23;;;;;;;7.82;5.80;;;7.70;99.90;;;;;;5056102;28;20028;-63
2022/05/03 03:03:25;;;;;;;7.10;5.65;;;7.70;99.90;;;;;;5055867;28;20052;-63
2022/05/03 03:05:59;;;;;;;10.82;7.03;;;7.70;99.90;;;;;;5014983;28;20509;-63
2022/05/03 03:08:28;;;;;;;9.77;5.95;;;7.70;99.90;;;;;;5056061;28;20455;-63
2022/05/03 03:11:28;;;;;;;10.00;6.18;;;7.70;99.90;;;;;;5037653;28;20029;-63
2022/05/03 03:14:15;;;;;;;9.60;6.57;;;7.70;99.90;;;;;;5033392;28;20033;-63
2022/05/03 03:16:52;;;;;;;8.07;6.00;;;7.60;99.90;;;;;;5055619;28;20025;-62
2022/05/03 03:19:47;;;;;;;11.13;6.97;;;7.60;99.90;;;;;;5055653;28;20043;-62
2022/05/03 03:22:14;;;;;;;12.32;7.68;;;7.60;99.90;;;;;;5037729;28;20116;-63
2022/05/03 03:24:41;;;;;;;11.13;7.18;;;7.50;99.90;;;;;;5055769;28;20035;-63
2022/05/03 03:27:11;;;;;;;11.85;7.60;;;7.40;99.90;;;;;;5055211;28;20021;-63
2022/05/03 03:29:39;;;;;;;12.85;7.57;;;7.40;99.90;;;;;;5055657;28;20551;-62
2022/05/03 03:32:08;;;;;;;14.13;8.27;;;7.40;99.90;;;;;;5055841;28;20021;-63
2022/05/03 03:34:34;;;;;;;14.10;8.52;;;7.40;99.90;;;;;;5056006;28;20036;-63
2022/05/03 03:37:01;;;;;;;11.05;7.97;;;7.30;99.90;;;;;;5056354;28;20021;-63
2022/05/03 03:39:29;;;;;;;14.38;8.65;;;7.40;99.90;;;;;;5038610;28;20035;-62
2022/05/03 03:41:58;;;;;;;13.80;7.43;;;7.30;99.90;;;;;;5057030;28;20021;-63
2022/05/03 03:44:24;;;;;;;11.18;7.60;;;7.30;99.90;;;;;;5057128;28;20119;-63
2022/05/03 03:46:50;;;;;;;13.35;7.25;;;7.40;99.90;;;;;;5057072;28;20063;-63
2022/05/03 03:49:16;;;;;;;13.68;7.75;;;7.40;99.90;;;;;;5056411;28;20039;-62
2022/05/03 03:51:42;;;;;;;14.05;7.72;;;7.40;99.90;;;;;;5056268;28;20024;-63
2022/05/03 03:54:08;;;;;;;10.23;7.38;;;7.40;99.90;;;;;;5055719;28;20118;-63
2022/05/03 03:56:34;;;;;;;12.65;8.23;;;7.40;99.90;;;;;;5056012;28;20048;-63
2022/05/03 03:59:02;;;;;;;13.10;7.95;;;7.40;99.90;;;;;;5055906;28;20057;-62
2022/05/03 04:01:27;;;;;;;13.40;8.02;;;7.40;99.90;;;;;;5055963;28;20028;-62
2022/05/03 04:03:53;;;;;;;12.35;7.85;;;7.30;99.90;;;;;;5055332;28;20021;-63
2022/05/03 04:06:19;;;;;;;12.35;8.10;;;7.40;99.90;;;;;;5056257;28;20021;-63
2022/05/03 04:08:44;;;;;;;10.93;7.15;;;7.50;99.90;;;;;;5056709;28;20028;-63
2022/05/03 04:11:17;;;;;;;12.93;7.57;;;7.40;99.90;;;;;;5056312;28;20025;-63
2022/05/03 04:13:45;;;;;;;10.70;7.50;;;7.50;99.90;;;;;;5056216;28;20036;-62
2022/05/03 04:16:11;;;;;;;12.02;7.68;;;7.50;99.90;;;;;;5055765;28;20028;-63
2022/05/03 04:18:46;;;;;;;14.15;7.32;;;7.50;99.90;;;;;;5037479;28;20025;-63
2022/05/03 04:21:14;;;;;;;17.35;7.82;;;7.40;99.90;;;;;;5055945;28;20045;-63
2022/05/03 04:23:40;;;;;;;12.77;6.85;;;7.40;99.90;;;;;;5036877;28;20417;-63
2022/05/03 04:26:05;;;;;;;14.52;8.45;;;7.50;99.90;;;;;;5055018;28;20043;-63
2022/05/03 04:28:31;;;;;;;13.68;8.30;;;7.50;99.90;;;;;;5054924;28;20033;-62
2022/05/03 04:30:56;;;;;;;13.70;7.72;;;7.50;99.90;;;;;;5054480;28;20103;-63
2022/05/03 04:33:22;;;;;;;10.50;7.60;;;7.50;99.90;;;;;;5054702;28;20021;-63
2022/05/03 04:35:47;;;;;;;11.73;7.82;;;7.50;99.90;;;;;;5054772;28;20048;-63
2022/05/03 04:38:13;;;;;;;10.85;8.07;;;7.50;99.90;;;;;;5054611;28;20061;-62
2022/05/03 04:40:38;;;;;;;14.30;8.57;;;7.50;99.90;;;;;;5054158;28;20029;-63
2022/05/03 04:43:04;;;;;;;12.30;8.57;;;7.40;99.90;;;;;;5054121;28;20040;-63
2022/05/03 04:45:29;;;;;;;14.93;8.73;;;7.30;99.90;;;;;;5053831;28;20059;-62
2022/05/03 04:47:55;;;;;;;16.33;9.18;;;7.40;99.90;;;;;;5036569;28;20112;-62
2022/05/03 04:50:21;;;;;;;15.30;9.30;;;7.40;99.90;;;;;;5053798;28;20032;-62
2022/05/03 04:52:46;;;;;;;13.10;9.13;;;7.40;99.90;;;;;;5053896;28;20048;-63
2022/05/03 04:55:12;;;;;;;15.82;9.10;;;7.40;99.90;;;;;;5054439;28;20020;-63
2022/05/03 04:57:38;;;;;;;13.55;8.98;;;7.40;99.90;;;;;;5054131;28;20474;-62
2022/05/03 05:00:04;;;;;;;14.90;9.32;;;7.40;99.90;;;;;;5053877;28;20078;-62
2022/05/03 05:02:30;;;;;;;15.60;8.93;;;7.40;99.90;;;;;;5053327;28;20087;-63
2022/05/03 05:04:55;;;;;;;14.38;8.48;;;7.30;99.90;;;;;;5053674;28;20029;-63
2022/05/03 05:07:21;;;;;;;15.32;8.45;;;7.40;99.90;;;;;;5053344;28;20278;-63
2022/05/03 05:12:30;;;;;;;15.85;8.63;;;7.50;99.90;;;;;;5053805;28;20040;-63
2022/05/03 05:14:56;;;;;;;15.40;9.23;;;7.50;99.90;;;;;;5053407;28;20466;-62
2022/05/03 05:17:22;;;;;;;17.85;9.40;;;7.60;99.90;;;;;;5053478;28;20121;-63
2022/05/03 05:19:47;;;;;;;14.23;9.00;;;7.50;99.90;;;;;;5053232;28;20406;-62
2022/05/03 05:22:13;;;;;;;20.75;9.45;;;7.50;99.90;;;;;;5053764;28;20112;-62
2022/05/03 05:24:38;;;;;;;16.15;8.77;;;7.60;99.90;;;;;;5053514;28;20029;-63
2022/05/03 05:27:04;;;;;;;17.05;8.98;;;7.70;99.90;;;;;;5053572;28;20028;-62
2022/05/03 05:29:29;;;;;;;14.73;9.02;;;7.80;99.90;;;;;;5053830;28;20024;-62
2022/05/03 05:31:55;;;;;;;15.15;8.52;;;7.80;99.90;;;;;;5054688;28;20021;-62
2022/05/03 05:34:20;;;;;;;19.42;9.00;;;7.80;99.90;;;;;;5050871;28;20028;-62
2022/05/03 05:36:46;;;;;;;14.93;9.07;;;7.90;99.90;;;;;;5043660;28;20029;-62
2022/05/03 05:39:12;;;;;;;17.88;8.95;;;8.00;99.90;;;;;;5048841;28;20033;-62
2022/05/03 05:41:37;;;;;;;17.45;9.65;;;8.10;99.90;;;;;;5025070;28;20060;-62
2022/05/03 05:44:04;;;;;;;16.25;8.65;;;8.20;99.90;;;;;;5052405;28;20557;-62
2022/05/03 05:46:30;;;;;;;17.30;8.60;;;8.30;99.90;;;;;;5054060;28;20032;-62
2022/05/03 05:48:56;;;;;;;13.98;8.73;;;8.50;99.90;;;;;;5053856;28;20030;-62
2022/05/03 05:51:21;;;;;;;12.75;8.65;;;8.70;99.90;;;;;;5053814;28;20393;-62
2022/05/03 05:53:47;;;;;;;14.82;8.23;;;8.80;99.90;;;;;;5053599;28;20080;-62
2022/05/03 05:56:14;;;;;;;15.10;9.68;;;8.90;99.90;;;;;;5054077;28;20021;-62
2022/05/03 05:58:40;;;;;;;16.73;9.77;;;9.00;99.90;;;;;;5051567;28;20017;-62
2022/05/03 06:01:05;;;;;;;18.65;8.88;;;9.10;99.90;;;;;;5044468;28;20032;-62
2022/05/03 06:03:32;;;;;;;13.65;9.48;;;9.20;99.90;;;;;;5033551;28;20494;-62
2022/05/03 06:05:59;;;;;;;14.48;8.98;;;9.20;99.90;;;;;;5036166;28;20397;-62
2022/05/03 06:08:25;;;;;;;18.63;11.20;;;9.30;99.90;;;;;;5049823;28;20029;-62
2022/05/03 06:10:51;;;;;;;25.38;11.20;;;9.30;99.90;;;;;;5052836;28;20029;-62
2022/05/03 06:13:17;;;;;;;16.08;10.82;;;9.30;99.90;;;;;;5053031;28;20389;-62
2022/05/03 06:15:43;;;;;;;19.63;11.15;;;9.40;99.90;;;;;;5053771;28;20024;-62
2022/05/03 06:18:09;;;;;;;21.23;11.40;;;9.50;99.90;;;;;;5053764;28;20037;-62
2022/05/03 06:20:36;;;;;;;21.05;10.95;;;9.60;99.90;;;;;;5046917;28;20550;-60
2022/05/03 06:23:02;;;;;;;16.70;10.98;;;9.80;99.90;;;;;;5014825;28;20120;-62
2022/05/03 06:25:28;;;;;;;19.95;12.40;;;10.00;99.90;;;;;;5031195;28;20029;-62
2022/05/03 06:27:53;;;;;;;21.95;12.98;;;10.10;99.90;;;;;;5035025;28;20041;-62
2022/05/03 06:30:19;;;;;;;19.42;12.57;;;10.10;99.90;;;;;;5036884;28;20025;-62
2022/05/03 06:32:45;;;;;;;24.00;13.23;;;10.10;99.90;;;;;;5036793;28;20060;-62
2022/05/03 06:35:14;;;;;;;23.88;14.80;;;10.20;99.90;;;;;;5036971;28;20091;-62
2022/05/03 06:37:42;;;;;;;25.73;14.73;;;10.20;99.90;;;;;;5018528;28;20026;-62
2022/05/03 06:40:09;;;;;;;26.85;13.43;;;10.40;99.90;;;;;;5037086;28;20479;-62
2022/05/03 06:42:36;;;;;;;21.52;15.63;;;10.40;99.90;;;;;;5037093;28;20036;-62
2022/05/03 06:45:02;;;;;;;28.15;17.73;;;10.50;99.90;;;;;;5037119;28;20398;-62
2022/05/03 06:47:28;;;;;;;27.98;17.52;;;10.50;99.90;;;;;;5036822;28;20513;-62
2022/05/03 06:49:53;;;;;;;32.10;17.83;;;10.50;99.90;;;;;;5036333;28;20057;-62
2022/05/03 06:52:20;;;;;;;32.15;17.95;;;10.70;99.90;;;;;;5036262;28;20076;-62
2022/05/03 06:54:45;;;;;;;26.60;16.08;;;10.80;99.90;;;;;;5036066;28;20018;-62
2022/05/03 06:57:11;;;;;;;28.17;17.10;;;11.00;99.90;;;;;;5035764;28;20568;-62
2022/05/03 06:59:36;;;;;;;31.48;17.75;;;11.20;99.90;;;;;;5036424;28;20021;-62
2022/05/03 07:02:02;;;;;;;28.23;18.33;;;11.40;99.90;;;;;;5036528;28;20030;-62
2022/05/03 07:04:27;;;;;;;34.08;20.20;;;11.50;99.90;;;;;;5036209;28;20108;-62
2022/05/03 07:06:53;;;;;;;33.90;19.70;;;11.50;99.90;;;;;;5035857;28;20033;-62
2022/05/03 07:09:19;;;;;;;34.88;20.67;;;11.60;99.90;;;;;;5035885;28;20053;-62
2022/05/03 07:11:44;;;;;;;37.13;22.77;;;11.70;99.90;;;;;;5036034;28;20378;-62
2022/05/03 07:14:10;;;;;;;39.58;22.90;;;11.80;99.90;;;;;;5036140;28;20036;-63
2022/05/03 07:16:35;;;;;;;39.88;23.92;;;11.90;99.90;;;;;;5036591;28;20024;-63
2022/05/03 07:24:29;;;;;;;43.83;23.08;;;11.70;99.90;;;;;;5036073;28;20032;-62
2022/05/03 07:26:55;;;;;;;41.92;23.10;;;11.70;99.90;;;;;;5035876;28;20100;-63
2022/05/03 07:29:21;;;;;;;41.25;23.23;;;11.80;99.90;;;;;;5035582;28;20032;-62
2022/05/03 07:31:47;;;;;;;47.10;24.85;;;11.80;99.90;;;;;;5035729;28;20021;-62
2022/05/03 07:34:13;;;;;;;43.45;26.13;;;11.80;99.90;;;;;;5035600;28;20059;-62
2022/05/03 07:36:41;;;;;;;44.78;25.27;;;11.80;99.90;;;;;;5035489;28;20075;-62
2022/05/03 07:39:07;;;;;;;46.25;25.00;;;11.70;99.90;;;;;;5035838;28;20025;-63
2022/05/03 07:41:32;;;;;;;47.58;25.25;;;11.80;99.90;;;;;;5035636;28;20025;-61
2022/05/03 07:43:58;;;;;;;45.25;24.85;;;11.80;99.90;;;;;;5035697;28;20017;-62
2022/05/03 07:46:23;;;;;;;47.22;24.40;;;11.90;99.90;;;;;;5035816;28;20017;-63
2022/05/03 07:48:49;;;;;;;46.83;26.08;;;12.00;99.90;;;;;;5035667;28;20071;-63
2022/05/03 07:51:14;;;;;;;43.58;24.98;;;12.00;99.90;;;;;;5033677;28;20164;-63
2022/05/03 07:53:40;;;;;;;45.10;25.85;;;12.20;99.90;;;;;;5035245;28;20025;-61
2022/05/03 07:56:06;;;;;;;49.30;26.25;;;12.30;99.90;;;;;;5035024;28;20029;-62
2022/05/03 07:58:32;;;;;;;49.67;25.73;;;12.20;99.90;;;;;;5037539;28;20029;-62
2022/05/03 08:00:57;;;;;;;55.78;29.02;;;12.10;99.90;;;;;;5055137;28;20078;-62
2022/05/03 08:03:23;;;;;;;57.17;29.42;;;12.00;99.90;;;;;;5039853;28;20486;-62
2022/05/03 08:05:50;;;;;;;57.92;29.90;;;12.10;99.90;;;;;;5035728;28;20057;-62
2022/05/03 08:08:16;;;;;;;63.95;32.20;;;12.10;99.90;;;;;;5037877;28;20021;-62
2022/05/03 08:10:42;;;;;;;62.25;32.17;;;12.20;99.90;;;;;;5054867;28;20428;-62
2022/05/03 08:13:08;;;;;;;59.75;29.65;;;12.30;99.90;;;;;;5036772;28;20087;-63
2022/05/03 08:15:33;;;;;;;63.55;31.58;;;12.30;99.90;;;;;;5055020;28;20020;-63
2022/05/03 08:20:27;;;;;;;59.92;30.08;;;12.20;99.90;;;;;;5011958;28;20057;-61
2022/05/03 08:22:53;;;;;;;64.40;31.42;;;12.20;99.90;;;;;;5015651;28;20028;-62
2022/05/03 08:25:18;;;;;;;59.70;30.92;;;12.10;99.90;;;;;;5014861;28;20022;-61
2022/05/03 08:27:44;;;;;;;52.55;27.15;;;12.00;99.90;;;;;;5014366;28;20072;-62
2022/05/03 08:30:11;;;;;;;54.50;27.60;;;11.90;99.90;;;;;;5009588;28;20022;-60
2022/05/03 08:32:36;;;;;;;49.35;25.38;;;11.80;99.90;;;;;;5015212;28;20518;-62
2022/05/03 08:35:02;;;;;;;44.40;24.83;;;11.70;99.90;;;;;;5015543;28;20029;-61
2022/05/03 08:42:56;;;;;;;43.92;23.65;;;12.00;99.90;;;;;;5014983;28;20075;-61
2022/05/03 08:45:24;;;;;;;41.22;20.45;;;12.00;99.90;;;;;;4996665;28;20030;-60
2022/05/03 08:47:50;;;;;;;40.42;19.95;;;12.20;99.90;;;;;;5014365;28;20033;-60
2022/05/03 08:50:19;;;;;;;32.72;18.80;;;12.20;99.90;;;;;;5014145;28;20033;-61
2022/05/03 08:52:53;;;;;;;30.10;17.98;;;12.40;99.90;;;;;;4997249;28;20030;-60
2022/05/03 08:55:19;;;;;;;28.90;16.80;;;12.40;99.90;;;;;;5014769;28;20014;-59
2022/05/03 08:57:45;;;;;;;26.88;16.20;;;12.50;99.90;;;;;;5014471;28;20022;-61
2022/05/03 09:00:12;;;;;;;26.52;15.95;;;12.60;99.90;;;;;;4997419;28;20117;-60
2022/05/03 09:02:55;;;;;;;29.67;16.20;;;12.70;99.90;;;;;;4997205;28;20033;-61
2022/05/03 09:05:23;;;;;;;27.15;16.00;;;12.70;99.90;;;;;;5015096;28;20112;-60
2022/05/03 09:07:51;;;;;;;26.63;13.93;;;12.70;99.90;;;;;;5015084;28;20033;-61
2022/05/03 09:10:31;;;;;;;24.27;14.65;;;12.70;99.90;;;;;;5014953;28;20041;-61
2022/05/03 09:13:14;;;;;;;24.65;13.63;;;12.70;99.90;;;;;;5015764;28;20022;-61
2022/05/03 09:15:40;;;;;;;28.88;14.38;;;12.70;99.90;;;;;;5013165;28;20045;-60
2022/05/03 09:18:05;;;;;;;22.40;12.75;;;12.60;99.90;;;;;;5014761;28;20022;-61
2022/05/03 09:26:22;;;;;;;18.40;11.43;;;12.80;99.90;;;;;;5007262;28;20092;-59
2022/05/03 09:28:58;;;;;;;16.92;10.65;;;12.70;99.90;;;;;;5009424;28;20471;-61
2022/05/03 09:31:42;;;;;;;17.25;11.25;;;12.70;99.90;;;;;;5011309;28;20509;-60
2022/05/03 09:34:19;;;;;;;22.58;12.85;;;12.70;99.90;;;;;;5015143;28;20022;-60
2022/05/03 09:36:51;;;;;;;27.00;11.65;;;12.60;99.90;;;;;;5014473;28;20025;-59
2022/05/03 09:39:23;;;;;;;;;;;12.60;99.90;;;;;;5005041;28;20038;-61
2022/05/03 09:42:09;;;;;;;23.20;11.98;;;12.60;99.90;;;;;;5005756;28;19932;-61
2022/05/03 09:44:40;;;;;;;25.13;12.18;;;12.50;99.90;;;;;;4997411;28;20097;-62
2022/05/03 09:47:07;;;;;;;;;;;12.50;99.90;;;;;;5007836;28;20380;-59
2022/05/03 09:49:38;;;;;;;28.00;12.68;;;12.60;99.90;;;;;;5013855;28;19945;-61
2022/05/03 09:52:05;;;;;;;25.55;13.02;;;12.50;99.90;;;;;;5004998;28;20033;-59
2022/05/03 09:54:49;;;;;;;29.70;13.73;;;12.50;99.90;;;;;;4994756;28;20387;-60
2022/05/03 09:57:26;;;;;;;31.08;13.60;;;12.40;99.90;;;;;;4976651;28;20113;-60
2022/05/03 09:59:54;;;;;;;30.35;13.60;;;12.40;99.90;;;;;;4976670;28;20619;-61
2022/05/03 10:02:22;;;;;;;24.92;12.68;;;12.30;99.90;;;;;;4999061;28;20113;-61
2022/05/03 10:04:49;;;;;;;30.80;12.98;;;12.30;99.90;;;;;;5006590;28;20026;-59
2022/05/03 10:07:15;;;;;;;31.80;13.20;;;12.10;99.90;;;;;;5013222;28;20113;-60
2022/05/03 10:09:42;;;;;;;28.48;13.52;;;12.10;99.90;;;;;;5006354;28;20110;-62
2022/05/03 10:12:10;;;;;;;25.55;11.95;;;12.10;99.90;;;;;;4997618;28;20023;-61
2022/05/03 10:14:36;;;;;;;27.67;10.98;;;12.10;99.90;;;;;;5012194;28;20018;-62
2022/05/03 10:22:39;;;;;;;31.13;10.65;;;12.00;99.90;;;;;;5015677;28;20161;-61
2022/05/03 10:25:08;;;;;;;25.25;10.70;;;12.00;99.90;;;;;;5015838;28;20030;-62
2022/05/03 10:27:54;;;;;;;23.40;10.73;;;12.10;99.90;;;;;;5016035;28;20092;-60
2022/05/03 10:30:22;;;;;;;24.02;10.57;;;12.10;99.90;;;;;;5014053;28;20101;-61
2022/05/03 10:33:19;;;;;;;18.52;9.80;;;12.10;99.90;;;;;;5015807;28;20018;-60
2022/05/03 10:35:45;;;;;;;17.45;8.65;;;12.20;99.90;;;;;;5014936;28;20097;-62
2022/05/03 10:38:12;;;;;;;17.23;7.80;;;12.30;99.90;;;;;;5013595;28;20029;-62
2022/05/03 10:40:43;;;;;;;20.95;8.32;;;12.30;99.90;;;;;;5002876;28;20034;-61
2022/05/03 10:43:23;;;;;;;21.23;8.00;;;12.40;99.90;;;;;;5016236;28;20026;-61
2022/05/03 10:45:52;;;;;;;20.33;8.38;;;12.50;99.90;;;;;;5016972;28;20441;-62
2022/05/03 10:48:33;;;;;;;20.33;7.65;;;12.60;99.90;;;;;;5005897;28;20021;-62
2022/05/03 10:51:05;;;;;;;33.53;8.38;;;12.80;99.90;;;;;;5014084;28;20495;-61
2022/05/03 10:53:35;;;;;;;23.83;8.07;;;13.10;99.90;;;;;;5015476;28;20455;-61
2022/05/03 10:56:21;;;;;;;17.15;7.13;;;13.30;99.90;;;;;;5016349;28;20017;-61
2022/05/03 10:59:15;;;;;;;22.67;8.52;;;13.50;99.90;;;;;;5014798;28;20018;-62
2022/05/03 11:01:56;;;;;;;19.30;7.47;;;13.50;99.90;;;;;;5013459;28;20092;-62
2022/05/03 11:04:23;;;;;;;16.70;8.10;;;13.40;99.90;;;;;;5013320;28;20018;-62
2022/05/03 11:06:49;;;;;;;17.23;7.13;;;13.40;99.90;;;;;;5015449;28;20498;-62
2022/05/03 11:09:26;;;;;;;17.35;7.85;;;13.30;99.90;;;;;;5005433;28;20506;-62
2022/05/03 11:11:53;;;;;;;21.98;7.55;;;13.30;99.90;;;;;;5015774;28;20542;-63
2022/05/03 11:14:19;;;;;;;20.15;7.60;;;13.30;99.90;;;;;;5014631;28;20025;-61
2022/05/03 11:17:06;;;;;;;16.08;7.53;;;13.30;99.90;;;;;;5015128;28;20018;-63
2022/05/03 11:19:33;;;;;;;17.90;7.28;;;13.40;99.90;;;;;;5014925;28;20048;-63
2022/05/03 11:21:59;;;;;;;15.90;6.63;;;13.50;99.90;;;;;;5014841;28;20018;-61
2022/05/03 11:24:30;;;;;;;17.23;6.32;;;13.60;99.90;;;;;;5005886;28;20050;-60
2022/05/03 11:27:07;;;;;;;14.05;7.40;;;13.70;99.90;;;;;;5013513;28;20479;-60
2022/05/03 11:29:36;;;;;;;17.10;6.35;;;13.80;99.90;;;;;;5000647;28;20038;-62
2022/05/03 11:32:06;;;;;;;17.25;6.07;;;13.90;99.90;;;;;;5014356;28;20022;-61
2022/05/03 11:34:32;;;;;;;15.25;6.45;;;13.90;99.90;;;;;;5014912;28;20018;-62
2022/05/03 11:36:58;;;;;;;19.52;6.57;;;14.00;99.90;;;;;;5014761;28;20068;-62
2022/05/03 11:39:24;;;;;;;19.27;6.57;;;14.00;99.90;;;;;;5014379;28;20022;-61
2022/05/03 11:41:50;;;;;;;25.17;6.80;;;14.20;99.90;;;;;;5012021;28;20049;-61
2022/05/03 11:44:16;;;;;;;21.88;5.68;;;14.30;99.90;;;;;;5016701;28;20080;-62
2022/05/03 11:46:43;;;;;;;18.02;5.60;;;14.20;99.90;;;;;;5016972;28;20402;-62
2022/05/03 11:49:11;;;;;;;14.52;5.00;;;14.30;99.90;;;;;;5015386;28;20390;-60
2022/05/03 11:57:34;;;;;;;18.42;5.60;;;14.50;99.90;;;;;;5012546;28;20053;-62
2022/05/03 12:00:01;;;;;;;15.13;5.85;;;14.80;99.90;;;;;;5009098;28;20032;-60
2022/05/03 12:02:45;;;;;;;13.65;5.38;;;14.80;99.90;;;;;;5012171;28;20394;-62
2022/05/03 12:05:21;;;;;;;19.75;5.68;;;14.40;99.90;;;;;;5011384;28;20113;-61
2022/05/03 12:07:52;;;;;;;21.35;5.60;;;14.30;99.90;;;;;;5012173;28;20045;-61
2022/05/03 12:10:26;;;;;;;17.38;5.78;;;14.40;99.90;;;;;;5004358;28;20083;-62
2022/05/03 12:13:08;;;;;;;21.42;5.03;;;14.40;99.90;;;;;;5003018;28;20052;-62
2022/05/03 12:15:35;;;;;;;21.73;5.55;;;14.40;99.90;;;;;;5005029;28;20021;-61
2022/05/03 12:18:03;;;;;;;16.27;5.38;;;14.40;99.90;;;;;;5013139;28;20494;-61
2022/05/03 12:20:46;;;;;;;14.90;5.75;;;14.50;99.90;;;;;;5012956;28;20049;-60
2022/05/03 12:23:18;;;;;;;14.57;4.85;;;14.60;99.90;;;;;;5013013;28;20052;-59
2022/05/03 12:25:52;;;;;;;20.30;5.07;;;14.60;99.90;;;;;;5012765;28;20450;-61
2022/05/03 12:28:18;;;;;;;13.48;4.72;;;14.60;99.90;;;;;;5014074;28;20018;-61
2022/05/03 12:30:45;;;;;;;14.52;4.97;;;14.60;99.90;;;;;;5013803;28;20045;-61
2022/05/03 12:33:15;;;;;;;15.38;5.40;;;14.50;99.90;;;;;;5013879;28;20024;-62
2022/05/03 12:35:43;;;;;;;11.32;4.53;;;14.50;99.90;;;;;;5012731;28;20082;-63
2022/05/03 12:38:13;;;;;;;15.88;5.28;;;14.70;99.90;;;;;;5012171;28;20022;-61
2022/05/03 12:40:52;;;;;;;14.48;4.35;;;14.80;99.90;;;;;;5012233;28;20094;-62
2022/05/03 12:43:23;;;;;;;8.32;4.28;;;14.70;99.90;;;;;;5010393;28;20038;-64
2022/05/03 12:46:15;;;;;;;12.73;4.63;;;14.70;99.90;;;;;;5001749;28;20041;-60
2022/05/03 12:48:40;;;;;;;11.30;3.88;;;14.80;99.90;;;;;;5010188;28;20033;-59
2022/05/03 12:51:06;;;;;;;12.15;4.20;;;14.90;99.90;;;;;;5012916;28;20100;-60
2022/05/03 12:53:34;;;;;;;14.70;4.07;;;15.00;99.90;;;;;;5013369;28;20045;-61
2022/05/03 12:58:47;;;;;;;10.90;4.50;;;15.10;99.90;;;;;;4982212;28;20072;-60
2022/05/03 13:01:13;;;;;;;13.98;4.07;;;15.00;99.90;;;;;;5008289;28;20033;-60
2022/05/03 13:03:39;;;;;;;16.38;3.75;;;15.00;99.90;;;;;;5011216;28;20033;-61
2022/05/03 13:06:05;;;;;;;9.27;4.15;;;15.00;99.90;;;;;;5010455;28;20026;-60
2022/05/03 13:08:31;;;;;;;14.10;3.58;;;14.90;99.90;;;;;;5012612;28;20360;-60
2022/05/03 13:10:57;;;;;;;10.43;4.15;;;14.80;99.90;;;;;;5012745;28;20113;-61
2022/05/03 13:13:24;;;;;;;13.95;4.57;;;15.00;99.90;;;;;;5013050;28;20025;-62
2022/05/03 13:15:50;;;;;;;10.35;3.60;;;14.70;99.90;;;;;;5012747;28;20014;-60
2022/05/03 13:18:15;;;;;;;11.45;4.55;;;14.60;99.90;;;;;;5013074;28;20052;-60
2022/05/03 13:20:41;;;;;;;11.50;4.40;;;14.60;99.90;;;;;;5012807;28;20037;-61
2022/05/03 13:23:07;;;;;;;9.95;3.80;;;14.70;99.90;;;;;;5011399;28;20511;-58
2022/05/03 13:25:32;;;;;;;8.93;4.38;;;14.90;99.90;;;;;;5010686;28;20034;-60
2022/05/03 13:27:58;;;;;;;11.45;3.85;;;14.90;99.90;;;;;;4997820;28;20442;-61
2022/05/03 13:30:24;;;;;;;13.35;4.22;;;14.80;99.90;;;;;;5012668;28;20049;-60
2022/05/03 13:32:49;;;;;;;16.85;4.90;;;14.80;99.90;;;;;;5012649;28;20048;-60
2022/05/03 13:35:15;;;;;;;11.40;3.72;;;14.80;99.90;;;;;;5012608;28;20479;-60
2022/05/03 13:40:31;;;;;;;8.27;3.55;;;14.60;99.90;;;;;;5016818;28;20084;-60
2022/05/03 13:42:58;;;;;;;6.13;3.33;;;14.50;99.90;;;;;;5015399;28;20068;-58